createdAt,value
2018-12-25T00:00:06.471Z,1006.34
2018-12-25T00:01:06.607Z,1006.37
2018-12-25T00:02:06.751Z,1006.42
2018-12-25T00:03:06.893Z,1006.43
2018-12-25T00:04:07.038Z,1006.44
2018-12-25T00:05:07.184Z,1006.43
2018-12-25T00:06:07.331Z,1006.42
2018-12-25T00:07:07.482Z,1006.42
2018-12-25T00:08:07.731Z,1006.44
2018-12-25T00:09:07.758Z,1006.38
2018-12-25T00:10:07.900Z,1006.40
2018-12-25T00:11:08.045Z,1006.43
2018-12-25T00:12:08.188Z,1006.40
2018-12-25T00:13:08.330Z,1006.43
2018-12-25T00:14:08.471Z,1006.41
2018-12-25T00:15:08.616Z,1006.40
2018-12-25T00:16:08.758Z,1006.44
2018-12-25T00:17:08.900Z,1006.33
2018-12-25T00:18:09.047Z,1006.36
2018-12-25T00:19:09.189Z,1006.38
2018-12-25T00:20:09.334Z,1006.40
2018-12-25T00:21:09.477Z,1006.40
2018-12-25T00:22:09.619Z,1006.38
2018-12-25T00:23:09.765Z,1006.42
2018-12-25T00:24:09.904Z,1006.39
2018-12-25T00:25:10.048Z,1006.40
2018-12-25T00:26:10.190Z,1006.46
2018-12-25T00:27:10.337Z,1006.39
2018-12-25T00:28:10.481Z,1006.42
2018-12-25T00:29:10.627Z,1006.42
2018-12-25T00:30:10.767Z,1006.44
2018-12-25T00:31:10.912Z,1006.46
2018-12-25T00:32:11.052Z,1006.49
2018-12-25T00:33:11.209Z,1006.51
2018-12-25T00:34:11.365Z,1006.56
2018-12-25T00:35:11.524Z,1006.52
2018-12-25T00:36:11.667Z,1006.53
2018-12-25T00:37:11.811Z,1006.53
2018-12-25T00:38:11.954Z,1006.51
2018-12-25T00:39:12.097Z,1006.50
2018-12-25T00:40:12.240Z,1006.53
2018-12-25T00:41:12.383Z,1006.49
2018-12-25T00:42:12.525Z,1006.49
2018-12-25T00:43:12.669Z,1006.53
2018-12-25T00:44:12.813Z,1006.53
2018-12-25T00:45:12.957Z,1006.54
2018-12-25T00:46:13.101Z,1006.52
2018-12-25T00:47:13.243Z,1006.54
2018-12-25T00:48:13.387Z,1006.49
2018-12-25T00:49:14.888Z,1006.53
2018-12-25T00:50:13.679Z,1006.50
2018-12-25T00:51:13.823Z,1006.52
2018-12-25T00:52:13.965Z,1006.51
2018-12-25T00:53:14.112Z,1006.50
2018-12-25T00:54:14.255Z,1006.47
2018-12-25T00:55:14.430Z,1006.54
2018-12-25T00:56:14.541Z,1006.49
2018-12-25T00:57:14.685Z,1006.46
2018-12-25T00:58:14.827Z,1006.40
2018-12-25T00:59:14.970Z,1006.49
2018-12-25T01:00:15.113Z,1006.46
2018-12-25T01:01:15.260Z,1006.47
2018-12-25T01:02:15.401Z,1006.51
2018-12-25T01:03:15.544Z,1006.49
2018-12-25T01:04:15.688Z,1006.52
2018-12-25T01:05:15.830Z,1006.50
2018-12-25T01:06:15.973Z,1006.53
2018-12-25T01:07:16.116Z,1006.55
2018-12-25T01:08:16.260Z,1006.59
2018-12-25T01:09:16.400Z,1006.59
2018-12-25T01:10:16.543Z,1006.65
2018-12-25T01:11:16.689Z,1006.73
2018-12-25T01:12:16.834Z,1006.74
2018-12-25T01:13:16.978Z,1006.74
2018-12-25T01:14:17.137Z,1006.78
2018-12-25T01:15:17.278Z,1006.76
2018-12-25T01:16:17.425Z,1006.75
2018-12-25T01:17:17.564Z,1006.76
2018-12-25T01:18:17.708Z,1006.76
2018-12-25T01:19:23.255Z,1006.75
2018-12-25T01:20:17.998Z,1006.76
2018-12-25T01:21:18.141Z,1006.77
2018-12-25T01:22:18.284Z,1006.84
2018-12-25T01:23:18.428Z,1006.81
2018-12-25T01:24:18.573Z,1006.80
2018-12-25T01:25:18.717Z,1006.84
2018-12-25T01:26:18.860Z,1006.71
2018-12-25T01:27:19.003Z,1006.74
2018-12-25T01:28:19.146Z,1006.74
2018-12-25T01:29:19.289Z,1006.78
2018-12-25T01:30:19.434Z,1006.76
2018-12-25T01:31:19.576Z,1006.75
2018-12-25T01:32:19.722Z,1006.72
2018-12-25T01:33:19.870Z,1006.71
2018-12-25T01:34:20.011Z,1006.72
2018-12-25T01:35:20.156Z,1006.73
2018-12-25T01:36:20.300Z,1006.68
2018-12-25T01:37:20.444Z,1006.67
2018-12-25T01:38:20.589Z,1006.71
2018-12-25T01:39:20.733Z,1006.70
2018-12-25T01:40:20.875Z,1006.71
2018-12-25T01:41:21.018Z,1006.73
2018-12-25T01:42:21.166Z,1006.75
2018-12-25T01:43:21.308Z,1006.76
2018-12-25T01:44:21.450Z,1006.72
2018-12-25T01:45:21.597Z,1006.74
2018-12-25T01:46:21.734Z,1006.72
2018-12-25T01:47:21.878Z,1006.71
2018-12-25T01:48:22.021Z,1006.71
2018-12-25T01:49:22.164Z,1006.72
2018-12-25T01:50:22.306Z,1006.69
2018-12-25T01:51:22.452Z,1006.64
2018-12-25T01:52:22.594Z,1006.67
2018-12-25T01:53:22.740Z,1006.66
2018-12-25T01:54:22.883Z,1006.59
2018-12-25T01:55:23.024Z,1006.58
2018-12-25T01:56:23.166Z,1006.53
2018-12-25T01:57:23.311Z,1006.56
2018-12-25T01:58:23.455Z,1006.60
2018-12-25T01:59:23.601Z,1006.63
2018-12-25T02:00:23.745Z,1006.64
2018-12-25T02:01:23.886Z,1006.68
2018-12-25T02:02:24.030Z,1006.66
2018-12-25T02:03:24.178Z,1006.67
2018-12-25T02:04:24.317Z,1006.67
2018-12-25T02:05:24.466Z,1006.68
2018-12-25T02:06:24.605Z,1006.67
2018-12-25T02:07:24.749Z,1006.67
2018-12-25T02:08:24.889Z,1006.65
2018-12-25T02:09:25.042Z,1006.64
2018-12-25T02:10:25.177Z,1006.62
2018-12-25T02:11:25.322Z,1006.62
2018-12-25T02:12:25.462Z,1006.57
2018-12-25T02:13:25.605Z,1006.58
2018-12-25T02:14:25.749Z,1006.56
2018-12-25T02:15:25.891Z,1006.55
2018-12-25T02:16:26.036Z,1006.60
2018-12-25T02:17:26.182Z,1006.58
2018-12-25T02:18:26.324Z,1006.58
2018-12-25T02:19:26.467Z,1006.61
2018-12-25T02:20:26.610Z,1006.65
2018-12-25T02:21:26.754Z,1006.61
2018-12-25T02:22:26.897Z,1006.69
2018-12-25T02:23:27.041Z,1006.71
2018-12-25T02:24:27.186Z,1006.69
2018-12-25T02:25:27.332Z,1006.68
2018-12-25T02:26:27.474Z,1006.72
2018-12-25T02:27:27.619Z,1006.67
2018-12-25T02:28:27.764Z,1006.76
2018-12-25T02:29:27.906Z,1006.75
2018-12-25T02:30:28.052Z,1006.75
2018-12-25T02:31:28.196Z,1006.74
2018-12-25T02:32:28.336Z,1006.74
2018-12-25T02:33:28.485Z,1006.78
2018-12-25T02:34:28.625Z,1006.82
2018-12-25T02:35:28.770Z,1006.74
2018-12-25T02:36:28.912Z,1006.71
2018-12-25T02:37:29.055Z,1006.69
2018-12-25T02:38:29.199Z,1006.68
2018-12-25T02:39:29.345Z,1006.64
2018-12-25T02:40:29.493Z,1006.66
2018-12-25T02:41:29.634Z,1006.67
2018-12-25T02:42:29.782Z,1006.65
2018-12-25T02:43:29.922Z,1006.62
2018-12-25T02:44:30.068Z,1006.58
2018-12-25T02:45:30.211Z,1006.56
2018-12-25T02:46:30.356Z,1006.54
2018-12-25T02:47:30.497Z,1006.58
2018-12-25T02:48:30.643Z,1006.59
2018-12-25T02:49:30.785Z,1006.58
2018-12-25T02:50:30.945Z,1006.62
2018-12-25T02:51:31.071Z,1006.58
2018-12-25T02:52:31.214Z,1006.54
2018-12-25T02:53:31.357Z,1006.54
2018-12-25T02:54:31.511Z,1006.52
2018-12-25T02:55:31.655Z,1006.49
2018-12-25T02:56:31.799Z,1006.47
2018-12-25T02:57:31.942Z,1006.45
2018-12-25T02:58:32.084Z,1006.43
2018-12-25T02:59:32.232Z,1006.43
2018-12-25T03:00:32.376Z,1006.37
2018-12-25T03:01:32.519Z,1006.32
2018-12-25T03:02:32.661Z,1006.37
2018-12-25T03:03:32.804Z,1006.33
2018-12-25T03:04:32.950Z,1006.35
2018-12-25T03:05:33.090Z,1006.39
2018-12-25T03:06:33.235Z,1006.39
2018-12-25T03:07:33.381Z,1006.42
2018-12-25T03:08:33.525Z,1006.43
2018-12-25T03:09:33.667Z,1006.41
2018-12-25T03:10:33.812Z,1006.44
2018-12-25T03:11:33.952Z,1006.43
2018-12-25T03:12:34.098Z,1006.42
2018-12-25T03:13:34.240Z,1006.39
2018-12-25T03:14:34.389Z,1006.34
2018-12-25T03:15:34.560Z,1006.38
2018-12-25T03:16:34.705Z,1006.34
2018-12-25T03:17:34.854Z,1006.30
2018-12-25T03:18:34.998Z,1006.24
2018-12-25T03:19:35.134Z,1006.19
2018-12-25T03:20:35.281Z,1006.17
2018-12-25T03:21:35.427Z,1006.10
2018-12-25T03:22:35.571Z,1006.12
2018-12-25T03:23:35.716Z,1006.06
2018-12-25T03:24:35.859Z,1006.09
2018-12-25T03:25:36.001Z,1006.10
2018-12-25T03:26:36.146Z,1006.12
2018-12-25T03:27:36.292Z,1006.13
2018-12-25T03:28:36.436Z,1006.09
2018-12-25T03:29:36.578Z,1006.13
2018-12-25T03:30:36.727Z,1006.17
2018-12-25T03:31:36.865Z,1006.13
2018-12-25T03:32:37.011Z,1006.14
2018-12-25T03:33:37.153Z,1006.16
2018-12-25T03:34:37.295Z,1006.23
2018-12-25T03:35:37.446Z,1006.18
2018-12-25T03:36:37.584Z,1006.20
2018-12-25T03:37:37.725Z,1006.17
2018-12-25T03:38:37.869Z,1006.18
2018-12-25T03:39:38.010Z,1006.18
2018-12-25T03:40:38.158Z,1006.21
2018-12-25T03:41:38.300Z,1006.18
2018-12-25T03:42:38.443Z,1006.22
2018-12-25T03:43:38.587Z,1006.26
2018-12-25T03:44:38.732Z,1006.26
2018-12-25T03:45:38.880Z,1006.25
2018-12-25T03:46:39.018Z,1006.29
2018-12-25T03:47:39.167Z,1006.25
2018-12-25T03:48:39.305Z,1006.24
2018-12-25T03:49:39.453Z,1006.26
2018-12-25T03:50:39.593Z,1006.24
2018-12-25T03:51:39.738Z,1006.24
2018-12-25T03:52:39.880Z,1006.23
2018-12-25T03:53:40.025Z,1006.25
2018-12-25T03:54:40.169Z,1006.18
2018-12-25T03:55:40.314Z,1006.16
2018-12-25T03:56:40.456Z,1006.13
2018-12-25T03:57:40.599Z,1006.15
2018-12-25T03:58:40.749Z,1006.15
2018-12-25T03:59:40.889Z,1006.13
2018-12-25T04:00:41.031Z,1006.11
2018-12-25T04:01:41.181Z,1006.11
2018-12-25T04:02:41.322Z,1006.09
2018-12-25T04:03:41.468Z,1006.04
2018-12-25T04:04:41.612Z,1005.96
2018-12-25T04:05:41.756Z,1005.95
2018-12-25T04:06:41.896Z,1005.93
2018-12-25T04:07:42.042Z,1006.00
2018-12-25T04:08:42.188Z,1005.99
2018-12-25T04:09:42.330Z,1006.00
2018-12-25T04:10:42.473Z,1005.96
2018-12-25T04:11:42.618Z,1005.99
2018-12-25T04:12:42.762Z,1006.06
2018-12-25T04:13:42.907Z,1006.01
2018-12-25T04:14:43.052Z,1006.13
2018-12-25T04:15:43.194Z,1006.10
2018-12-25T04:16:43.337Z,1006.05
2018-12-25T04:17:43.480Z,1006.03
2018-12-25T04:18:43.626Z,1005.96
2018-12-25T04:19:43.767Z,1005.94
2018-12-25T04:20:43.916Z,1005.94
2018-12-25T04:21:44.122Z,1006.00
2018-12-25T04:22:44.201Z,1006.00
2018-12-25T04:23:44.355Z,1006.01
2018-12-25T04:24:44.500Z,1006.02
2018-12-25T04:25:44.632Z,1006.06
2018-12-25T04:26:44.778Z,1006.05
2018-12-25T04:27:44.924Z,1006.03
2018-12-25T04:28:45.061Z,1006.06
2018-12-25T04:29:45.215Z,1006.08
2018-12-25T04:30:45.353Z,1006.06
2018-12-25T04:31:45.504Z,1006.02
2018-12-25T04:32:45.637Z,1006.01
2018-12-25T04:33:45.783Z,1005.99
2018-12-25T04:34:45.926Z,1005.98
2018-12-25T04:35:46.071Z,1006.00
2018-12-25T04:36:46.216Z,1006.02
2018-12-25T04:37:46.359Z,1006.01
2018-12-25T04:38:46.504Z,1005.99
2018-12-25T04:39:46.648Z,1006.02
2018-12-25T04:40:46.789Z,1006.01
2018-12-25T04:41:46.928Z,1006.02
2018-12-25T04:42:47.076Z,1005.99
2018-12-25T04:43:47.220Z,1005.99
2018-12-25T04:44:47.360Z,1006.01
2018-12-25T04:45:47.501Z,1006.00
2018-12-25T04:46:47.645Z,1006.03
2018-12-25T04:47:47.788Z,1006.03
2018-12-25T04:48:47.930Z,1006.08
2018-12-25T04:49:48.076Z,1006.09
2018-12-25T04:50:48.218Z,1006.11
2018-12-25T04:51:48.361Z,1006.10
2018-12-25T04:52:48.507Z,1006.13
2018-12-25T04:53:48.650Z,1006.15
2018-12-25T04:54:48.796Z,1006.16
2018-12-25T04:55:48.939Z,1006.16
2018-12-25T04:56:49.081Z,1006.18
2018-12-25T04:57:49.224Z,1006.15
2018-12-25T04:58:49.369Z,1006.18
2018-12-25T04:59:49.512Z,1006.21
2018-12-25T05:00:49.740Z,1006.21
2018-12-25T05:01:49.800Z,1006.18
2018-12-25T05:02:49.946Z,1006.18
2018-12-25T05:03:50.088Z,1006.13
2018-12-25T05:04:50.236Z,1006.12
2018-12-25T05:05:50.378Z,1006.11
2018-12-25T05:06:50.522Z,1006.11
2018-12-25T05:07:50.666Z,1006.07
2018-12-25T05:08:50.808Z,1006.03
2018-12-25T05:09:50.952Z,1006.05
2018-12-25T05:10:51.095Z,1006.00
2018-12-25T05:11:51.238Z,1005.93
2018-12-25T05:12:51.382Z,1005.93
2018-12-25T05:13:51.524Z,1005.98
2018-12-25T05:14:51.685Z,1005.96
2018-12-25T05:15:51.829Z,1006.03
2018-12-25T05:16:51.973Z,1006.02
2018-12-25T05:17:52.119Z,1006.02
2018-12-25T05:18:52.260Z,1006.04
2018-12-25T05:19:52.400Z,1006.04
2018-12-25T05:20:52.546Z,1005.96
2018-12-25T05:21:52.690Z,1005.96
2018-12-25T05:22:52.834Z,1005.95
2018-12-25T05:23:52.977Z,1005.98
2018-12-25T05:24:53.123Z,1005.96
2018-12-25T05:25:53.267Z,1005.97
2018-12-25T05:26:53.413Z,1005.94
2018-12-25T05:27:53.556Z,1005.96
2018-12-25T05:28:53.703Z,1005.91
2018-12-25T05:29:53.847Z,1005.94
2018-12-25T05:30:53.991Z,1005.92
2018-12-25T05:31:54.134Z,1005.95
2018-12-25T05:32:54.277Z,1005.95
2018-12-25T05:33:54.425Z,1005.93
2018-12-25T05:34:54.566Z,1005.97
2018-12-25T05:35:54.709Z,1005.94
2018-12-25T05:36:54.957Z,1005.92
2018-12-25T05:37:54.995Z,1005.96
2018-12-25T05:38:55.140Z,1006.04
2018-12-25T05:39:55.285Z,1006.01
2018-12-25T05:40:55.428Z,1006.03
2018-12-25T05:41:55.571Z,1006.00
2018-12-25T05:42:55.716Z,1006.04
2018-12-25T05:43:55.859Z,1006.05
2018-12-25T05:44:56.000Z,1006.09
2018-12-25T05:45:56.144Z,1006.13
2018-12-25T05:46:56.290Z,1006.05
2018-12-25T05:47:56.435Z,1006.13
2018-12-25T05:48:56.577Z,1006.15
2018-12-25T05:49:56.719Z,1006.20
2018-12-25T05:50:56.864Z,1006.22
2018-12-25T05:51:57.007Z,1006.22
2018-12-25T05:52:57.150Z,1006.22
2018-12-25T05:53:57.294Z,1006.25
2018-12-25T05:54:57.436Z,1006.26
2018-12-25T05:55:57.582Z,1006.26
2018-12-25T05:56:57.728Z,1006.25
2018-12-25T05:57:57.868Z,1006.26
2018-12-25T05:58:58.011Z,1006.30
2018-12-25T05:59:58.156Z,1006.29
2018-12-25T06:00:58.306Z,1006.28
2018-12-25T06:01:58.441Z,1006.30
2018-12-25T06:02:58.585Z,1006.33
2018-12-25T06:03:58.731Z,1006.32
2018-12-25T06:04:58.875Z,1006.32
2018-12-25T06:05:59.018Z,1006.33
2018-12-25T06:06:59.161Z,1006.35
2018-12-25T06:07:59.306Z,1006.37
2018-12-25T06:08:59.452Z,1006.37
2018-12-25T06:09:59.593Z,1006.28
2018-12-25T06:10:59.734Z,1006.29
2018-12-25T06:11:59.878Z,1006.32
2018-12-25T06:13:00.022Z,1006.30
2018-12-25T06:14:00.163Z,1006.37
2018-12-25T06:15:00.307Z,1006.29
2018-12-25T06:16:00.452Z,1006.29
2018-12-25T06:17:00.596Z,1006.31
2018-12-25T06:18:00.741Z,1006.33
2018-12-25T06:19:00.887Z,1006.31
2018-12-25T06:20:01.033Z,1006.27
2018-12-25T06:21:01.184Z,1006.26
2018-12-25T06:22:01.321Z,1006.23
2018-12-25T06:23:01.464Z,1006.26
2018-12-25T06:24:01.607Z,1006.26
2018-12-25T06:25:01.767Z,1006.30
2018-12-25T06:26:01.894Z,1006.30
2018-12-25T06:27:02.040Z,1006.23
2018-12-25T06:28:02.182Z,1006.23
2018-12-25T06:29:02.327Z,1006.17
2018-12-25T06:30:02.469Z,1006.14
2018-12-25T06:31:02.616Z,1006.12
2018-12-25T06:32:02.759Z,1006.05
2018-12-25T06:33:02.903Z,1006.05
2018-12-25T06:34:03.135Z,1006.07
2018-12-25T06:35:03.193Z,1006.02
2018-12-25T06:36:03.342Z,1006.05
2018-12-25T06:37:03.481Z,1006.01
2018-12-25T06:38:03.635Z,1006.02
2018-12-25T06:39:03.769Z,1006.05
2018-12-25T06:40:03.985Z,1006.08
2018-12-25T06:41:04.065Z,1006.17
2018-12-25T06:42:04.198Z,1006.15
2018-12-25T06:43:04.344Z,1006.22
2018-12-25T06:44:04.487Z,1006.25
2018-12-25T06:45:04.650Z,1006.26
2018-12-25T06:46:04.766Z,1006.23
2018-12-25T06:47:04.985Z,1006.24
2018-12-25T06:48:05.005Z,1006.24
2018-12-25T06:49:05.203Z,1006.21
2018-12-25T06:50:05.292Z,1006.22
2018-12-25T06:51:05.441Z,1006.22
2018-12-25T06:52:05.583Z,1006.21
2018-12-25T06:53:05.732Z,1006.21
2018-12-25T06:54:05.873Z,1006.22
2018-12-25T06:55:06.015Z,1006.24
2018-12-25T06:56:06.161Z,1006.23
2018-12-25T06:57:06.303Z,1006.24
2018-12-25T06:58:06.447Z,1006.28
2018-12-25T06:59:06.590Z,1006.27
2018-12-25T07:00:07.122Z,1006.21
2018-12-25T07:01:06.874Z,1006.21
2018-12-25T07:02:07.021Z,1006.16
2018-12-25T07:03:07.166Z,1006.04
2018-12-25T07:04:07.312Z,1006.10
2018-12-25T07:05:07.454Z,1006.07
2018-12-25T07:06:07.596Z,1006.12
2018-12-25T07:07:07.740Z,1006.15
2018-12-25T07:08:07.890Z,1006.19
2018-12-25T07:09:08.029Z,1006.20
2018-12-25T07:10:08.175Z,1006.16
2018-12-25T07:11:08.318Z,1006.20
2018-12-25T07:12:08.461Z,1006.20
2018-12-25T07:13:08.604Z,1006.21
2018-12-25T07:14:08.747Z,1006.20
2018-12-25T07:15:08.891Z,1006.21
2018-12-25T07:16:09.037Z,1006.20
2018-12-25T07:17:09.177Z,1006.16
2018-12-25T07:18:09.400Z,1006.20
2018-12-25T07:19:09.462Z,1006.15
2018-12-25T07:20:09.607Z,1006.17
2018-12-25T07:21:12.261Z,1006.16
2018-12-25T07:22:09.906Z,1006.17
2018-12-25T07:23:10.033Z,1006.16
2018-12-25T07:24:10.180Z,1006.11
2018-12-25T07:25:10.321Z,1006.09
2018-12-25T07:26:10.465Z,1006.09
2018-12-25T07:27:10.610Z,1006.08
2018-12-25T07:28:10.756Z,1006.05
2018-12-25T07:29:10.897Z,1006.07
2018-12-25T07:30:11.042Z,1006.01
2018-12-25T07:31:11.182Z,1006.02
2018-12-25T07:32:11.327Z,1006.00
2018-12-25T07:33:11.470Z,1006.02
2018-12-25T07:34:11.635Z,1006.00
2018-12-25T07:35:11.761Z,1006.02
2018-12-25T07:36:11.904Z,1006.00
2018-12-25T07:37:12.048Z,1005.97
2018-12-25T07:38:12.192Z,1005.97
2018-12-25T07:39:12.336Z,1005.94
2018-12-25T07:40:12.481Z,1005.91
2018-12-25T07:41:12.624Z,1005.90
2018-12-25T07:42:12.769Z,1005.90
2018-12-25T07:43:12.908Z,1005.86
2018-12-25T07:44:13.054Z,1005.90
2018-12-25T07:45:13.197Z,1005.96
2018-12-25T07:46:13.343Z,1005.96
2018-12-25T07:47:13.490Z,1005.94
2018-12-25T07:48:13.629Z,1005.94
2018-12-25T07:49:13.773Z,1005.90
2018-12-25T07:50:13.916Z,1005.91
2018-12-25T07:51:20.646Z,1005.87
2018-12-25T07:52:14.205Z,1005.88
2018-12-25T07:53:14.350Z,1005.81
2018-12-25T07:54:14.492Z,1005.83
2018-12-25T07:55:14.636Z,1005.80
2018-12-25T07:56:14.779Z,1005.83
2018-12-25T07:57:14.923Z,1005.82
2018-12-25T07:58:15.068Z,1005.88
2018-12-25T07:59:15.211Z,1005.93
2018-12-25T08:00:15.356Z,1005.92
2018-12-25T08:01:15.500Z,1005.94
2018-12-25T08:02:15.645Z,1005.96
2018-12-25T08:03:15.788Z,1005.91
2018-12-25T08:04:15.932Z,1005.89
2018-12-25T08:05:16.091Z,1005.91
2018-12-25T08:06:16.223Z,1005.90
2018-12-25T08:07:16.368Z,1005.91
2018-12-25T08:08:16.511Z,1005.86
2018-12-25T08:09:16.656Z,1005.86
2018-12-25T08:10:16.802Z,1005.84
2018-12-25T08:11:16.948Z,1005.86
2018-12-25T08:12:17.092Z,1005.82
2018-12-25T08:13:17.237Z,1005.85
2018-12-25T08:14:17.383Z,1005.88
2018-12-25T08:15:17.527Z,1005.90
2018-12-25T08:16:17.670Z,1005.88
2018-12-25T08:17:17.817Z,1005.89
2018-12-25T08:18:17.962Z,1005.91
2018-12-25T08:19:18.107Z,1005.89
2018-12-25T08:20:18.249Z,1005.86
2018-12-25T08:21:18.394Z,1005.85
2018-12-25T08:22:18.539Z,1005.84
2018-12-25T08:23:18.682Z,1005.86
2018-12-25T08:24:18.829Z,1005.85
2018-12-25T08:25:18.972Z,1005.85
2018-12-25T08:26:19.119Z,1005.87
2018-12-25T08:27:19.265Z,1005.93
2018-12-25T08:28:19.411Z,1005.94
2018-12-25T08:29:19.555Z,1005.96
2018-12-25T08:30:19.701Z,1005.97
2018-12-25T08:31:19.844Z,1006.00
2018-12-25T08:32:19.991Z,1005.91
2018-12-25T08:33:20.136Z,1005.95
2018-12-25T08:34:20.283Z,1005.99
2018-12-25T08:35:20.428Z,1005.97
2018-12-25T08:36:20.573Z,1006.07
2018-12-25T08:37:20.716Z,1006.06
2018-12-25T08:38:20.860Z,1006.08
2018-12-25T08:39:21.007Z,1006.07
2018-12-25T08:40:21.152Z,1006.10
2018-12-25T08:41:21.294Z,1006.10
2018-12-25T08:42:21.440Z,1006.08
2018-12-25T08:43:21.583Z,1006.11
2018-12-25T08:44:21.729Z,1006.08
2018-12-25T08:45:21.875Z,1006.07
2018-12-25T08:46:22.021Z,1006.10
2018-12-25T08:47:22.167Z,1006.07
2018-12-25T08:48:22.309Z,1006.08
2018-12-25T08:49:22.455Z,1006.05
2018-12-25T08:50:22.604Z,1006.07
2018-12-25T08:51:22.747Z,1006.07
2018-12-25T08:52:23.560Z,1006.05
2018-12-25T08:53:23.038Z,1006.08
2018-12-25T08:54:23.184Z,1006.14
2018-12-25T08:55:23.329Z,1006.12
2018-12-25T08:56:23.474Z,1006.08
2018-12-25T08:57:23.618Z,1006.10
2018-12-25T08:58:23.764Z,1006.15
2018-12-25T08:59:23.911Z,1006.18
2018-12-25T09:00:24.056Z,1006.23
2018-12-25T09:01:24.202Z,1006.21
2018-12-25T09:02:24.345Z,1006.22
2018-12-25T09:03:24.493Z,1006.21
2018-12-25T09:04:24.636Z,1006.22
2018-12-25T09:05:24.785Z,1006.19
2018-12-25T09:06:24.930Z,1006.18
2018-12-25T09:07:25.074Z,1006.18
2018-12-25T09:08:25.218Z,1006.23
2018-12-25T09:09:25.366Z,1006.23
2018-12-25T09:10:25.512Z,1006.21
2018-12-25T09:11:25.658Z,1006.23
2018-12-25T09:12:25.799Z,1006.18
2018-12-25T09:13:25.948Z,1006.18
2018-12-25T09:14:26.090Z,1006.15
2018-12-25T09:15:26.237Z,1006.17
2018-12-25T09:16:26.382Z,1006.13
2018-12-25T09:17:26.525Z,1006.09
2018-12-25T09:18:26.676Z,1006.14
2018-12-25T09:19:26.819Z,1006.11
2018-12-25T09:20:26.963Z,1006.09
2018-12-25T09:21:27.111Z,1006.10
2018-12-25T09:22:27.253Z,1006.11
2018-12-25T09:23:27.395Z,1006.10
2018-12-25T09:24:27.547Z,1006.08
2018-12-25T09:25:27.703Z,1006.08
2018-12-25T09:26:27.830Z,1006.09
2018-12-25T09:27:27.976Z,1006.09
2018-12-25T09:28:28.121Z,1006.08
2018-12-25T09:29:28.268Z,1006.02
2018-12-25T09:30:28.412Z,1006.10
2018-12-25T09:31:28.557Z,1006.02
2018-12-25T09:32:28.702Z,1006.00
2018-12-25T09:33:28.848Z,1005.91
2018-12-25T09:34:28.992Z,1005.91
2018-12-25T09:35:29.128Z,1005.90
2018-12-25T09:36:29.282Z,1005.95
2018-12-25T09:37:29.407Z,1005.97
2018-12-25T09:38:29.555Z,1005.99
2018-12-25T09:39:29.703Z,1006.04
2018-12-25T09:40:29.842Z,1006.06
2018-12-25T09:41:29.991Z,1006.07
2018-12-25T09:42:30.135Z,1006.03
2018-12-25T09:43:30.280Z,1006.04
2018-12-25T09:44:30.425Z,1006.00
2018-12-25T09:45:30.573Z,1005.96
2018-12-25T09:46:30.716Z,1005.98
2018-12-25T09:47:30.867Z,1005.95
2018-12-25T09:48:31.011Z,1005.92
2018-12-25T09:49:31.159Z,1005.96
2018-12-25T09:50:31.308Z,1005.92
2018-12-25T09:51:31.450Z,1005.93
2018-12-25T09:52:31.596Z,1005.95
2018-12-25T09:53:31.738Z,1005.98
2018-12-25T09:54:31.890Z,1006.09
2018-12-25T09:55:32.034Z,1006.09
2018-12-25T09:56:32.181Z,1006.11
2018-12-25T09:57:32.343Z,1006.17
2018-12-25T09:58:32.472Z,1006.17
2018-12-25T09:59:32.617Z,1006.14
2018-12-25T10:00:32.764Z,1006.13
2018-12-25T10:01:32.910Z,1006.03
2018-12-25T10:02:33.064Z,1006.05
2018-12-25T10:03:33.227Z,1006.03
2018-12-25T10:04:33.348Z,1006.05
2018-12-25T10:05:33.492Z,1006.10
2018-12-25T10:06:33.632Z,1006.06
2018-12-25T10:07:33.778Z,1006.04
2018-12-25T10:08:33.923Z,1006.04
2018-12-25T10:09:34.069Z,1006.05
2018-12-25T10:10:34.216Z,1006.00
2018-12-25T10:11:34.364Z,1006.00
2018-12-25T10:12:34.565Z,1006.03
2018-12-25T10:13:34.662Z,1005.95
2018-12-25T10:14:35.273Z,1005.90
2018-12-25T10:15:34.953Z,1005.97
2018-12-25T10:16:35.098Z,1005.95
2018-12-25T10:17:35.242Z,1005.95
2018-12-25T10:18:35.388Z,1005.89
2018-12-25T10:19:35.535Z,1005.88
2018-12-25T10:20:35.683Z,1005.97
2018-12-25T10:21:35.830Z,1005.98
2018-12-25T10:22:35.978Z,1005.96
2018-12-25T10:23:36.125Z,1005.94
2018-12-25T10:24:36.270Z,1005.94
2018-12-25T10:25:36.416Z,1005.89
2018-12-25T10:26:36.567Z,1005.89
2018-12-25T10:27:36.710Z,1005.90
2018-12-25T10:28:36.860Z,1005.91
2018-12-25T10:29:37.003Z,1005.91
2018-12-25T10:30:37.150Z,1005.88
2018-12-25T10:31:37.297Z,1005.91
2018-12-25T10:32:37.443Z,1005.85
2018-12-25T10:33:37.591Z,1005.88
2018-12-25T10:34:37.739Z,1005.84
2018-12-25T10:35:37.882Z,1005.90
2018-12-25T10:36:38.022Z,1005.89
2018-12-25T10:37:38.164Z,1005.88
2018-12-25T10:38:38.316Z,1005.90
2018-12-25T10:39:38.461Z,1005.88
2018-12-25T10:40:38.608Z,1005.87
2018-12-25T10:41:38.757Z,1005.89
2018-12-25T10:42:38.896Z,1005.90
2018-12-25T10:43:39.038Z,1005.93
2018-12-25T10:44:39.186Z,1005.94
2018-12-25T10:45:39.332Z,1005.99
2018-12-25T10:46:39.477Z,1005.99
2018-12-25T10:47:39.625Z,1005.99
2018-12-25T10:48:39.772Z,1006.04
2018-12-25T10:49:39.922Z,1005.98
2018-12-25T10:50:41.827Z,1005.93
2018-12-25T10:51:40.212Z,1005.92
2018-12-25T10:52:40.356Z,1005.88
2018-12-25T10:53:40.503Z,1005.84
2018-12-25T10:54:40.648Z,1005.82
2018-12-25T10:55:40.803Z,1005.78
2018-12-25T10:56:40.954Z,1005.71
2018-12-25T10:57:41.099Z,1005.65
2018-12-25T10:58:41.247Z,1005.63
2018-12-25T10:59:41.395Z,1005.59
2018-12-25T11:00:41.540Z,1005.64
2018-12-25T11:01:41.691Z,1005.60
2018-12-25T11:02:41.837Z,1005.59
2018-12-25T11:03:41.989Z,1005.66
2018-12-25T11:04:42.137Z,1005.67
2018-12-25T11:05:42.286Z,1005.74
2018-12-25T11:06:42.433Z,1005.79
2018-12-25T11:07:42.581Z,1005.85
2018-12-25T11:08:42.725Z,1005.85
2018-12-25T11:09:42.873Z,1005.90
2018-12-25T11:10:43.020Z,1005.91
2018-12-25T11:11:43.166Z,1005.90
2018-12-25T11:12:43.314Z,1005.89
2018-12-25T11:13:43.460Z,1005.87
2018-12-25T11:14:43.608Z,1005.90
2018-12-25T11:15:43.754Z,1005.89
2018-12-25T11:16:43.900Z,1005.91
2018-12-25T11:17:44.056Z,1005.92
2018-12-25T11:18:49.118Z,1005.89
2018-12-25T11:19:44.348Z,1005.86
2018-12-25T11:20:44.493Z,1005.87
2018-12-25T11:21:44.643Z,1005.80
2018-12-25T11:22:44.791Z,1005.82
2018-12-25T11:23:44.939Z,1005.83
2018-12-25T11:24:45.086Z,1005.78
2018-12-25T11:25:45.233Z,1005.81
2018-12-25T11:26:45.383Z,1005.72
2018-12-25T11:27:45.529Z,1005.72
2018-12-25T11:28:45.675Z,1005.73
2018-12-25T11:29:45.821Z,1005.70
2018-12-25T11:30:45.964Z,1005.68
2018-12-25T11:31:46.113Z,1005.68
2018-12-25T11:32:46.259Z,1005.66
2018-12-25T11:33:46.411Z,1005.71
2018-12-25T11:34:46.553Z,1005.70
2018-12-25T11:35:46.699Z,1005.76
2018-12-25T11:36:46.844Z,1005.72
2018-12-25T11:37:46.988Z,1005.73
2018-12-25T11:38:47.137Z,1005.75
2018-12-25T11:39:47.280Z,1005.72
2018-12-25T11:40:47.429Z,1005.81
2018-12-25T11:41:47.695Z,1005.72
2018-12-25T11:42:47.727Z,1005.68
2018-12-25T11:43:47.874Z,1005.70
2018-12-25T11:44:48.020Z,1005.64
2018-12-25T11:45:48.165Z,1005.62
2018-12-25T11:46:48.309Z,1005.64
2018-12-25T11:47:48.470Z,1005.59
2018-12-25T11:48:48.623Z,1005.61
2018-12-25T11:49:48.772Z,1005.57
2018-12-25T11:50:48.921Z,1005.56
2018-12-25T11:51:49.066Z,1005.63
2018-12-25T11:52:49.236Z,1005.64
2018-12-25T11:53:49.394Z,1005.63
2018-12-25T11:54:49.561Z,1005.57
2018-12-25T11:55:49.769Z,1005.59
2018-12-25T11:56:49.805Z,1005.52
2018-12-25T11:57:50.024Z,1005.54
2018-12-25T11:58:50.095Z,1005.50
2018-12-25T11:59:50.248Z,1005.51
2018-12-25T12:00:50.399Z,1005.56
2018-12-25T12:01:50.553Z,1005.56
2018-12-25T12:02:50.716Z,1005.61
2018-12-25T12:03:50.845Z,1005.64
2018-12-25T12:04:50.990Z,1005.66
2018-12-25T12:05:51.136Z,1005.69
2018-12-25T12:06:51.285Z,1005.70